Time;durP1;ratioP1;P1;durP2;ratioP2;P2;SDS_P1;SDS_P2;PMS_P1;PMS_P2;Temp;Humidity;BMP_temperature;BMP_pressure;BME280_temperature;BME280_humidity;BME280_pressure;Samples;Min_cycle;Max_cycle;Signal;HPM_P1;HPM_P2
2024/03/17 00:04:16;;;;;;;4.30;2.67;;;;;;;17.45;50.55;102153.31;10449920;28;20044;-58
2024/03/17 00:09:17;;;;;;;5.87;3.10;;;;;;;17.48;50.12;102145.56;10449417;28;20794;-59
2024/03/17 00:14:18;;;;;;;4.13;2.80;;;;;;;17.45;51.09;102137.22;10449220;28;20299;-58
2024/03/17 00:19:18;;;;;;;5.53;3.65;;;;;;;17.49;50.66;102141.81;10449290;28;20032;-58
2024/03/17 00:24:19;;;;;;;4.70;3.33;;;;;;;17.47;51.89;102137.78;10449559;28;20145;-58
2024/03/17 00:29:19;;;;;;;4.38;3.15;;;;;;;17.51;50.04;102133.53;10435269;28;20317;-59
2024/03/17 00:34:20;;;;;;;4.60;2.63;;;;;;;17.47;49.93;102124.38;10447727;28;20437;-58
2024/03/17 00:39:20;;;;;;;3.83;2.72;;;;;;;17.47;50.36;102133.22;10447500;28;20295;-58
2024/03/17 00:44:21;;;;;;;3.17;2.33;;;;;;;17.48;50.96;102120.63;10449130;28;20021;-58
2024/03/17 00:49:22;;;;;;;5.05;2.70;;;;;;;17.51;50.98;102118.25;10447123;28;20037;-58
2024/03/17 00:54:22;;;;;;;4.47;2.40;;;;;;;17.50;50.54;102124.66;10452350;28;20025;-58
2024/03/17 00:59:22;;;;;;;3.70;2.37;;;;;;;17.48;50.98;102117.94;10456112;28;20276;-58
2024/03/17 01:04:23;;;;;;;5.03;2.43;;;;;;;17.47;50.87;102110.97;10456032;28;20283;-58
2024/03/17 01:09:23;;;;;;;3.70;2.33;;;;;;;17.48;51.03;102104.53;10455924;28;20272;-58
2024/03/17 01:14:23;;;;;;;4.50;2.47;;;;;;;17.48;50.04;102104.53;10455719;28;20306;-58
2024/03/17 01:19:25;;;;;;;3.88;2.42;;;;;;;17.45;50.92;102100.50;10455582;28;20765;-58
2024/03/17 01:24:31;;;;;;;5.07;2.60;;;;;;;17.46;50.28;102096.75;10455515;28;20024;-58
2024/03/17 01:29:31;;;;;;;3.58;2.33;;;;;;;17.43;51.44;102096.47;10453728;28;20021;-58
2024/03/17 01:34:31;;;;;;;3.80;2.27;;;;;;;17.45;51.14;102105.06;10455121;28;20052;-59
2024/03/17 01:39:32;;;;;;;3.87;2.20;;;;;;;17.42;50.77;102081.44;10454664;28;20287;-58
2024/03/17 01:44:32;;;;;;;4.55;2.42;;;;;;;17.44;49.60;102073.94;10454733;28;20332;-58
2024/03/17 01:49:32;;;;;;;6.17;2.93;;;;;;;17.46;51.07;102075.31;10454257;28;20036;-58
2024/03/17 01:54:33;;;;;;;3.27;2.10;;;;;;;17.46;50.23;102069.94;10454631;28;20763;-57
2024/03/17 01:59:33;;;;;;;3.28;1.92;;;;;;;17.49;51.19;102076.66;10453877;28;20279;-58
2024/03/17 02:04:34;;;;;;;3.08;2.17;;;;;;;17.45;49.87;102072.88;10452602;28;20017;-58
2024/03/17 02:09:34;;;;;;;3.42;2.50;;;;;;;17.47;50.48;102066.19;10451173;28;20028;-58
2024/03/17 02:14:35;;;;;;;3.47;2.07;;;;;;;17.46;50.67;102066.44;10453251;28;20094;-58
2024/03/17 02:19:35;;;;;;;3.40;2.00;;;;;;;17.49;50.42;102060.56;10451468;28;20279;-58
2024/03/17 02:24:36;;;;;;;3.93;1.97;;;;;;;17.47;50.72;102057.34;10453180;28;20025;-58
2024/03/17 02:29:39;;;;;;;3.60;2.08;;;;;;;17.50;49.94;102060.31;10452684;28;20271;-58
2024/03/17 02:34:40;;;;;;;3.13;1.92;;;;;;;17.46;50.46;102053.84;10453180;28;20029;-58
2024/03/17 02:39:41;;;;;;;3.63;2.30;;;;;;;17.46;49.46;102051.16;10452166;28;20040;-57
2024/03/17 02:44:41;;;;;;;4.17;2.30;;;;;;;17.45;50.19;102046.88;10452555;28;20021;-58
2024/03/17 02:49:43;;;;;;;3.97;2.05;;;;;;;17.43;50.01;102038.28;10450630;28;20268;-58
2024/03/17 02:54:44;;;;;;;3.75;1.90;;;;;;;17.46;50.57;102031.59;10451917;28;20029;-58
2024/03/17 02:59:46;;;;;;;4.20;1.80;;;;;;;17.44;49.98;102037.22;10451841;28;20112;-58
2024/03/17 03:04:46;;;;;;;4.82;2.17;;;;;;;17.41;50.80;102032.38;10451558;28;20396;-58
2024/03/17 03:09:47;;;;;;;1.80;1.45;;;;;;;17.43;50.15;102026.75;10451589;28;20032;-57
2024/03/17 03:14:47;;;;;;;2.47;1.80;;;;;;;17.41;49.18;102029.69;10450042;28;20536;-56
2024/03/17 03:19:47;;;;;;;3.67;2.00;;;;;;;17.43;49.70;102024.88;10433273;28;20029;-58
2024/03/17 03:24:51;;;;;;;2.47;1.60;;;;;;;17.45;50.52;102035.34;10450509;28;20032;-58
2024/03/17 03:29:52;;;;;;;2.95;1.75;;;;;;;17.43;50.35;102038.28;10450838;28;20285;-58
2024/03/17 03:34:52;;;;;;;3.67;2.80;;;;;;;17.46;50.80;102040.44;10450334;28;20453;-58
2024/03/17 03:39:53;;;;;;;2.67;1.85;;;;;;;17.44;50.38;102039.91;10450623;28;20356;-57
2024/03/17 03:44:54;;;;;;;3.70;1.90;;;;;;;17.44;49.98;102033.72;10449657;28;20021;-58
2024/03/17 03:49:55;;;;;;;5.55;2.30;;;;;;;17.45;50.42;102022.75;10449932;28;20028;-58
2024/03/17 03:54:55;;;;;;;3.37;1.60;;;;;;;17.46;50.53;102018.19;10449371;28;20036;-58
2024/03/17 03:59:56;;;;;;;4.83;2.23;;;;;;;17.44;49.90;102002.34;10449717;28;20290;-58
2024/03/17 04:04:57;;;;;;;2.50;1.75;;;;;;;17.45;50.21;102005.84;10448100;28;20274;-58
2024/03/17 04:09:57;;;;;;;3.10;2.10;;;;;;;17.46;49.97;101997.53;10448573;28;20032;-58
2024/03/17 04:14:58;;;;;;;3.60;1.95;;;;;;;17.45;49.85;101990.56;10447560;28;20041;-57
2024/03/17 04:19:59;;;;;;;3.47;1.98;;;;;;;17.46;50.69;101986.00;10449682;28;20083;-58
2024/03/17 04:24:59;;;;;;;4.53;2.03;;;;;;;17.43;50.47;101979.28;10448761;28;20021;-58
2024/03/17 04:30:00;;;;;;;3.65;1.83;;;;;;;17.42;50.86;101975.00;10457387;28;20090;-58
2024/03/17 04:35:01;;;;;;;2.05;1.48;;;;;;;17.43;50.00;101965.06;10455647;28;20563;-58
2024/03/17 04:40:04;;;;;;;4.32;2.13;;;;;;;17.44;50.04;101962.13;10446019;28;20037;-58
2024/03/17 04:45:06;;;;;;;3.28;2.00;;;;;;;17.41;50.99;101965.34;10452016;28;20035;-58
2024/03/17 04:50:07;;;;;;;3.70;2.13;;;;;;;17.43;50.13;101959.72;10456637;28;20040;-58
2024/03/17 04:55:08;;;;;;;4.32;2.05;;;;;;;17.44;50.73;101954.09;10456493;28;20028;-58
2024/03/17 05:00:08;;;;;;;3.30;1.85;;;;;;;17.42;50.55;101942.00;10453993;28;20102;-58
2024/03/17 05:05:10;;;;;;;3.03;1.50;;;;;;;17.42;49.99;101950.06;10456005;28;20021;-57
2024/03/17 05:10:10;;;;;;;2.50;1.70;;;;;;;17.41;50.78;101953.81;10456175;28;20032;-58
2024/03/17 05:15:10;;;;;;;3.20;1.53;;;;;;;17.40;50.79;101971.75;10455122;28;20040;-58
2024/03/17 05:20:13;;;;;;;2.95;1.65;;;;;;;17.43;50.60;101962.41;10454145;28;20355;-58
2024/03/17 05:25:13;;;;;;;2.40;1.60;;;;;;;17.41;51.37;101965.34;10453542;28;20052;-58
2024/03/17 05:30:13;;;;;;;5.38;3.33;;;;;;;17.38;51.41;101957.78;10455298;28;20052;-58
2024/03/17 05:35:14;;;;;;;2.60;1.80;;;;;;;17.42;51.08;101958.91;10454473;28;20048;-58
2024/03/17 05:40:14;;;;;;;2.33;1.63;;;;;;;17.41;49.92;101959.16;10451674;28;20025;-58
2024/03/17 05:45:15;;;;;;;3.10;1.80;;;;;;;17.41;51.39;101959.16;10450801;28;20333;-58
2024/03/17 05:50:16;;;;;;;2.88;1.65;;;;;;;17.41;50.38;101972.56;10446326;28;20024;-58
2024/03/17 05:55:16;;;;;;;2.40;1.67;;;;;;;17.41;50.48;101967.22;10446288;28;20043;-59
2024/03/17 06:00:16;;;;;;;3.60;2.10;;;;;;;17.40;49.89;101957.53;10445659;28;20032;-58
2024/03/17 06:05:17;;;;;;;3.22;1.60;;;;;;;17.40;50.92;101947.59;10452367;28;20412;-58
2024/03/17 06:10:17;;;;;;;3.93;2.00;;;;;;;17.39;51.15;101958.59;10450977;28;20025;-58
2024/03/17 06:15:17;;;;;;;2.50;1.67;;;;;;;17.36;51.10;101954.56;10442934;28;20298;-58
2024/03/17 06:20:23;;;;;;;3.50;2.10;;;;;;;17.41;50.22;101959.16;10449740;28;20348;-59
2024/03/17 06:25:23;;;;;;;2.75;1.83;;;;;;;17.42;50.66;101945.50;10448162;28;20029;-58
2024/03/17 06:30:24;;;;;;;2.58;1.77;;;;;;;17.40;51.74;101947.59;10453275;28;20039;-59
2024/03/17 06:35:26;;;;;;;5.93;1.80;;;;;;;17.42;51.02;101940.13;10451870;28;20116;-58
2024/03/17 06:40:26;;;;;;;3.63;1.90;;;;;;;17.41;51.07;101943.09;10452590;28;20279;-59
2024/03/17 06:45:27;;;;;;;2.93;1.60;;;;;;;17.27;51.81;101933.84;10450626;28;20032;-60
2024/03/17 06:50:27;;;;;;;6.40;2.23;;;;;;;17.40;52.23;101939.56;10449943;28;20332;-58
2024/03/17 06:55:28;;;;;;;7.33;2.07;;;;;;;17.59;53.74;101937.28;10451050;28;20844;-57
2024/03/17 07:00:28;;;;;;;15.30;2.70;;;;;;;17.54;55.11;101938.06;10450909;28;20274;-63
2024/03/17 07:05:29;;;;;;;11.43;3.10;;;;;;;17.57;52.84;101935.94;10449457;28;20021;-57
2024/03/17 07:10:30;;;;;;;8.40;2.20;;;;;;;17.31;53.31;101948.38;10447146;28;20021;-58
2024/03/17 07:15:36;;;;;;;16.10;3.88;;;;;;;17.29;53.60;101948.63;10531163;27;20779;-58
2024/03/17 07:20:36;;;;;;;9.80;2.63;;;;;;;17.22;53.79;101953.38;10522647;28;20028;-56
2024/03/17 07:25:39;;;;;;;9.02;3.13;;;;;;;17.18;54.67;101954.97;10524873;28;20020;-57
2024/03/17 07:30:50;;;;;;;4.73;2.30;;;;;;;17.23;53.55;101955.81;10517408;28;20035;-58
2024/03/17 07:35:50;;;;;;;10.15;2.75;;;;;;;17.13;55.11;101954.91;10527426;28;20278;-57
2024/03/17 07:41:02;;;;;;;11.52;2.83;;;;;;;17.09;55.09;101962.66;10520801;28;20399;-54
2024/03/17 07:46:07;;;;;;;12.98;3.75;;;;;;;17.12;54.76;101964.00;10524027;28;20111;-58
2024/03/17 07:51:16;;;;;;;35.65;6.50;;;;;;;17.13;54.42;101971.78;10524957;28;20058;-57
2024/03/17 07:56:17;;;;;;;26.35;4.80;;;;;;;17.16;54.78;101971.28;10524610;28;20079;-57
2024/03/17 08:01:17;;;;;;;28.92;5.15;;;;;;;17.20;56.02;101953.66;10525087;28;20107;-57
2024/03/17 08:06:18;;;;;;;21.60;5.13;;;;;;;17.22;55.00;101948.81;10523594;28;20028;-57
2024/03/17 08:11:18;;;;;;;16.83;4.27;;;;;;;17.09;56.15;101956.50;10524401;28;20059;-58
2024/03/17 08:16:18;;;;;;;20.63;4.33;;;;;;;17.02;56.25;101947.84;10524126;28;20267;-57
2024/03/17 08:21:19;;;;;;;15.90;4.47;;;;;;;16.99;55.25;101940.31;10523437;28;20277;-55
2024/03/17 08:26:19;;;;;;;11.77;3.45;;;;;;;16.98;55.93;101941.38;10498202;28;20281;-56
2024/03/17 08:31:19;;;;;;;13.37;4.07;;;;;;;16.92;56.64;101949.38;10500694;28;20020;-56
2024/03/17 08:36:21;;;;;;;14.30;3.80;;;;;;;16.90;54.89;101951.50;10495392;28;20275;-57
2024/03/17 08:41:21;;;;;;;7.88;3.63;;;;;;;16.90;54.46;101950.69;10490131;28;20040;-57
2024/03/17 08:46:21;;;;;;;10.13;3.60;;;;;;;16.85;55.93;101947.97;10491113;28;20023;-58
2024/03/17 08:51:22;;;;;;;12.63;5.38;;;;;;;16.78;56.18;101942.81;10494756;28;20746;-57
2024/03/17 08:56:23;;;;;;;16.33;5.57;;;;;;;16.84;54.78;101941.81;10494746;28;20346;-57
2024/03/17 09:01:24;;;;;;;13.48;4.00;;;;;;;16.91;54.84;101933.53;10494057;28;20266;-57
2024/03/17 09:06:27;;;;;;;8.57;3.03;;;;;;;16.93;54.73;101923.41;10492711;28;20029;-55
2024/03/17 09:11:28;;;;;;;12.20;4.10;;;;;;;16.99;55.09;101919.69;10494190;28;20051;-57
2024/03/17 09:16:30;;;;;;;9.07;3.72;;;;;;;16.94;54.08;101930.38;10493653;28;20029;-56
2024/03/17 09:21:30;;;;;;;12.00;3.55;;;;;;;16.93;53.64;101923.41;10494448;28;20025;-56
2024/03/17 09:26:31;;;;;;;5.20;3.38;;;;;;;16.97;54.65;101921.03;10493255;28;20643;-56
2024/03/17 09:31:34;;;;;;;8.90;3.28;;;;;;;16.99;54.42;101913.53;10490865;28;20031;-56
2024/03/17 09:36:35;;;;;;;8.88;4.05;;;;;;;17.05;54.62;101909.81;10483182;28;20024;-57
2024/03/17 09:41:38;;;;;;;10.95;3.55;;;;;;;17.09;53.70;101911.75;10486266;28;20430;-54
2024/03/17 09:46:38;;;;;;;11.35;3.88;;;;;;;17.11;55.12;101917.66;10487168;28;20032;-58
2024/03/17 09:51:39;;;;;;;12.37;4.00;;;;;;;17.18;54.36;101902.16;10492380;28;20495;-56
2024/03/17 09:56:40;;;;;;;27.10;5.30;;;;;;;17.23;55.27;101910.25;10491476;28;20385;-57
2024/03/17 10:01:42;;;;;;;14.05;4.32;;;;;;;17.24;55.44;101916.41;10481376;28;20051;-57
2024/03/17 10:06:50;;;;;;;10.70;3.45;;;;;;;17.27;54.56;101912.41;10449874;28;20043;-55
2024/03/17 10:11:51;;;;;;;14.40;3.75;;;;;;;17.33;55.03;101903.34;10472344;28;20114;-57
2024/03/17 10:16:51;;;;;;;18.73;4.73;;;;;;;17.33;54.57;101908.69;10492112;28;20073;-55
2024/03/17 10:21:59;;;;;;;15.63;5.32;;;;;;;17.35;55.38;101903.88;10486733;28;20278;-54
2024/03/17 10:27:01;;;;;;;17.48;4.22;;;;;;;17.32;54.72;101889.13;10488782;28;20033;-56
2024/03/17 10:32:13;;;;;;;17.17;3.80;;;;;;;17.16;56.06;101892.75;10491390;28;20052;-55
2024/03/17 10:37:15;;;;;;;11.38;3.28;;;;;;;17.14;55.34;101901.06;10491154;28;20059;-55
2024/03/17 10:42:25;;;;;;;16.00;3.85;;;;;;;17.10;54.91;101883.06;10491450;28;20491;-57
2024/03/17 10:47:27;;;;;;;21.20;3.97;;;;;;;17.23;61.26;101886.13;10465429;28;20031;-55
2024/03/17 10:52:28;;;;;;;18.52;3.63;;;;;;;17.33;58.78;101887.25;10448826;28;20098;-56
2024/03/17 10:57:35;;;;;;;16.77;5.38;;;;;;;17.34;58.86;101883.50;10465294;28;20111;-55
2024/03/17 11:02:36;;;;;;;15.50;4.45;;;;;;;17.24;58.36;101876.19;10490514;28;20029;-56
2024/03/17 11:07:38;;;;;;;14.73;4.18;;;;;;;17.27;57.08;101883.72;10475101;28;20044;-56
2024/03/17 11:12:49;;;;;;;17.70;4.90;;;;;;;17.33;57.43;101877.34;10474645;28;20048;-55
2024/03/17 11:17:51;;;;;;;13.48;3.40;;;;;;;17.35;57.54;101877.06;10489806;28;20029;-54
2024/03/17 11:22:53;;;;;;;17.60;4.60;;;;;;;17.45;58.10;101866.41;10490103;28;20032;-55
2024/03/17 11:27:56;;;;;;;15.73;4.45;;;;;;;17.47;57.58;101866.97;10488054;28;20060;-55
2024/03/17 11:32:56;;;;;;;17.45;4.10;;;;;;;17.52;57.81;101865.13;10502916;28;20035;-57
2024/03/17 11:37:57;;;;;;;12.73;3.93;;;;;;;17.53;57.39;101864.06;10489195;28;20020;-57
2024/03/17 11:43:01;;;;;;;17.33;4.25;;;;;;;17.60;57.81;101863.00;10489564;28;20266;-57
2024/03/17 11:48:06;;;;;;;19.45;4.45;;;;;;;17.59;58.30;101858.72;10489020;28;20054;-55
2024/03/17 11:53:11;;;;;;;15.80;4.90;;;;;;;17.50;58.22;101858.38;10488546;28;20032;-55
2024/03/17 11:58:16;;;;;;;18.15;3.95;;;;;;;17.49;57.86;101860.25;10489972;28;20043;-53
2024/03/17 12:03:16;;;;;;;10.93;3.25;;;;;;;17.43;58.03;101853.28;10497203;28;20052;-59
2024/03/17 12:08:23;;;;;;;20.30;4.78;;;;;;;17.34;56.72;101840.63;10492927;28;20440;-57
2024/03/17 12:13:24;;;;;;;14.10;3.92;;;;;;;17.30;57.83;101844.88;10495040;28;20042;-55
2024/03/17 12:18:28;;;;;;;24.38;4.65;;;;;;;17.24;57.21;101841.34;10481786;28;20066;-55
2024/03/17 12:23:29;;;;;;;13.77;4.57;;;;;;;17.18;58.22;101834.38;10491015;28;20039;-55
2024/03/17 12:28:29;;;;;;;16.37;4.03;;;;;;;17.25;56.75;101832.25;10493902;28;20490;-56
2024/03/17 12:33:29;;;;;;;31.47;6.13;;;;;;;17.06;58.35;101823.84;10489621;28;20291;-56
2024/03/17 12:38:30;;;;;;;14.37;3.63;;;;;;;17.04;57.16;101815.22;10478514;28;20313;-56
2024/03/17 12:43:31;;;;;;;23.37;4.43;;;;;;;17.05;57.79;101810.66;10484029;28;20278;-56
2024/03/17 12:48:31;;;;;;;14.93;3.47;;;;;;;17.01;58.74;101806.91;10494941;28;20282;-56
2024/03/17 12:53:32;;;;;;;11.55;4.15;;;;;;;17.04;57.36;101804.50;10494028;28;20021;-56
2024/03/17 13:03:51;;;;;;;12.27;3.20;;;;;;;16.95;57.37;101779.28;10492710;28;20044;-56
2024/03/17 13:08:51;;;;;;;7.30;3.97;;;;;;;17.01;56.38;101780.09;10474991;28;20036;-54
2024/03/17 13:13:53;;;;;;;7.70;3.05;;;;;;;17.00;57.80;101775.81;10494231;28;20037;-56
2024/03/17 13:18:53;;;;;;;9.68;3.30;;;;;;;16.98;57.60;101777.94;10493668;28;20046;-56
2024/03/17 13:23:53;;;;;;;8.53;3.03;;;;;;;16.98;58.15;101778.75;10494235;28;20067;-56
2024/03/17 13:28:54;;;;;;;11.33;3.70;;;;;;;17.00;56.59;101768.59;10493347;28;20336;-56
2024/03/17 13:33:54;;;;;;;8.73;2.87;;;;;;;16.99;57.75;101758.13;10504751;28;20305;-56
2024/03/17 13:38:54;;;;;;;13.77;4.17;;;;;;;16.97;57.32;101749.56;10492738;28;20274;-56
2024/03/17 13:43:57;;;;;;;5.97;2.77;;;;;;;17.01;56.15;101737.25;10493162;28;20279;-55
2024/03/17 13:49:07;;;;;;;16.35;2.58;;;;;;;16.99;56.34;101737.50;10492219;28;20275;-56
2024/03/17 13:54:07;;;;;;;7.22;2.72;;;;;;;17.01;56.26;101726.53;10492317;28;20024;-56
2024/03/17 13:59:08;;;;;;;4.60;2.72;;;;;;;16.97;57.53;101723.56;10492009;28;20020;-55
2024/03/17 14:04:13;;;;;;;5.43;2.40;;;;;;;16.98;55.78;101719.81;10492487;28;20024;-56
2024/03/17 14:09:17;;;;;;;5.80;2.40;;;;;;;17.02;56.45;101709.38;10489806;28;20033;-56
2024/03/17 14:14:18;;;;;;;7.03;3.45;;;;;;;17.00;56.32;101700.81;10478725;28;20037;-56
2024/03/17 14:19:18;;;;;;;8.70;3.27;;;;;;;17.02;56.17;101695.97;10490181;28;20028;-56
2024/03/17 14:24:18;;;;;;;5.50;2.63;;;;;;;17.01;55.79;101692.50;10490877;28;20297;-57
2024/03/17 14:29:18;;;;;;;5.60;2.07;;;;;;;17.07;55.42;101690.66;10490669;28;20324;-56
2024/03/17 14:34:19;;;;;;;7.50;2.83;;;;;;;17.08;55.32;101676.19;10503948;28;20282;-56
2024/03/17 14:39:19;;;;;;;7.30;2.17;;;;;;;17.11;56.20;101679.16;10490359;28;20277;-56
2024/03/17 14:44:19;;;;;;;4.83;2.40;;;;;;;17.14;56.18;101672.44;10491012;28;20275;-56
2024/03/17 14:49:20;;;;;;;6.83;2.53;;;;;;;17.12;56.31;101650.47;10490183;28;20762;-55
2024/03/17 14:54:21;;;;;;;6.97;2.00;;;;;;;17.12;55.66;101645.13;10490568;28;20805;-56
2024/03/17 14:59:21;;;;;;;5.32;2.40;;;;;;;17.06;55.07;101643.50;10488281;28;20036;-55
2024/03/17 15:04:22;;;;;;;4.77;2.37;;;;;;;17.05;55.71;101640.03;10490618;28;20048;-56
2024/03/17 15:09:22;;;;;;;3.50;2.03;;;;;;;17.03;56.82;101634.09;10489965;28;20624;-56
2024/03/17 15:14:23;;;;;;;7.43;2.47;;;;;;;17.02;56.67;101626.31;10488577;28;20315;-56
2024/03/17 15:19:23;;;;;;;5.07;2.08;;;;;;;17.02;56.15;101626.31;10489371;28;20286;-56
2024/03/17 15:24:24;;;;;;;3.47;1.97;;;;;;;17.01;56.59;101620.16;10488604;28;20499;-57
2024/03/17 15:29:24;;;;;;;6.30;2.50;;;;;;;16.99;55.69;101618.81;10489452;28;20295;-55
2024/03/17 15:34:24;;;;;;;8.00;2.37;;;;;;;16.97;56.53;101612.91;10492790;28;20792;-56
2024/03/17 15:39:25;;;;;;;6.05;2.05;;;;;;;16.98;56.04;101598.44;10497073;28;20293;-56
2024/03/17 15:44:25;;;;;;;4.57;2.23;;;;;;;17.03;55.23;101609.19;10485016;28;20025;-56
2024/03/17 15:49:25;;;;;;;4.07;2.07;;;;;;;17.05;55.63;101610.53;10481609;28;20669;-57
2024/03/17 15:54:26;;;;;;;5.07;1.93;;;;;;;17.05;56.26;101599.81;10491845;28;20290;-56
2024/03/17 15:59:26;;;;;;;4.88;2.63;;;;;;;17.04;55.58;101586.66;10497389;28;20275;-57
2024/03/17 16:04:26;;;;;;;3.23;2.07;;;;;;;17.01;56.16;101588.00;10496496;28;20017;-57
2024/03/17 16:09:28;;;;;;;7.50;2.37;;;;;;;17.04;55.57;101578.63;10497000;28;20282;-57
2024/03/17 16:14:28;;;;;;;4.75;2.03;;;;;;;17.05;56.54;101577.56;10494048;28;20794;-56
2024/03/17 16:19:31;;;;;;;4.97;2.95;;;;;;;17.07;55.49;101581.59;10496031;28;20032;-57
2024/03/17 16:24:32;;;;;;;4.32;1.92;;;;;;;17.10;55.38;101573.03;10495092;28;20016;-58
2024/03/17 16:29:33;;;;;;;4.82;1.80;;;;;;;17.05;55.92;101564.16;10492730;28;20016;-56
2024/03/17 16:34:33;;;;;;;6.20;3.15;;;;;;;17.05;55.06;101565.00;10493542;28;20658;-56
2024/03/17 16:39:34;;;;;;;5.18;2.28;;;;;;;17.08;55.52;101564.47;10465219;28;20393;-57
2024/03/17 16:44:50;;;;;;;8.70;3.35;;;;;;;17.11;55.27;101565.81;10491635;28;20037;-57
2024/03/17 16:49:51;;;;;;;8.38;3.97;;;;;;;17.23;55.10;101563.69;10492342;28;20478;-56
2024/03/17 16:54:51;;;;;;;14.87;5.33;;;;;;;17.25;55.94;101559.66;10486696;28;20091;-56
2024/03/17 16:59:52;;;;;;;10.40;5.53;;;;;;;17.23;55.57;101559.13;10488746;28;20829;-55
2024/03/17 17:04:52;;;;;;;14.27;6.15;;;;;;;17.28;59.52;101554.84;10490151;28;20028;-56
2024/03/17 17:09:53;;;;;;;25.95;14.45;;;;;;;17.44;60.69;101551.91;10490267;28;20051;-55
2024/03/17 17:14:53;;;;;;;17.10;7.30;;;;;;;17.36;59.03;101555.13;10486041;28;20640;-58
2024/03/17 17:19:54;;;;;;;15.50;6.67;;;;;;;17.66;60.92;101550.84;10494375;28;20093;-55
2024/03/17 17:24:56;;;;;;;12.45;5.97;;;;;;;17.90;61.06;101556.50;10493657;28;20865;-57
2024/03/17 17:29:57;;;;;;;10.98;5.05;;;;;;;17.96;61.27;101564.25;10493753;28;20085;-56
2024/03/17 17:34:57;;;;;;;10.13;5.28;;;;;;;18.01;60.95;101560.78;10506208;28;20505;-54
2024/03/17 17:39:57;;;;;;;12.23;4.87;;;;;;;18.01;61.45;101548.16;10493191;28;20028;-55
2024/03/17 17:44:58;;;;;;;12.53;4.23;;;;;;;18.03;60.61;101550.56;10491154;28;20289;-57
2024/03/17 17:49:58;;;;;;;10.00;4.50;;;;;;;18.04;60.64;101547.63;10493257;28;20336;-58
2024/03/17 17:54:58;;;;;;;13.20;4.97;;;;;;;18.06;61.38;101548.16;10492293;28;20343;-54
2024/03/17 17:59:59;;;;;;;17.50;5.32;;;;;;;17.93;60.12;101558.63;10492639;28;20282;-54
2024/03/17 18:04:59;;;;;;;11.33;5.93;;;;;;;17.82;60.56;101557.84;10491179;28;20017;-55
2024/03/17 18:10:00;;;;;;;8.68;4.85;;;;;;;17.72;61.29;101558.66;10492913;28;20734;-56
2024/03/17 18:15:01;;;;;;;11.43;4.90;;;;;;;17.65;60.18;101559.97;10492065;28;20106;-55
2024/03/17 18:20:05;;;;;;;17.75;5.63;;;;;;;17.57;61.38;101555.94;10492824;28;20664;-55
2024/03/17 18:25:11;;;;;;;10.88;4.78;;;;;;;17.51;60.27;101549.75;10490686;28;20494;-56
2024/03/17 18:30:12;;;;;;;16.35;6.05;;;;;;;17.52;60.14;101548.72;10491575;28;20039;-55
2024/03/17 18:35:12;;;;;;;11.13;5.45;;;;;;;17.52;61.17;101553.25;10488361;28;20043;-55
2024/03/17 18:40:17;;;;;;;7.82;3.95;;;;;;;17.50;59.61;101544.66;10486209;28;20363;-56
2024/03/17 18:45:23;;;;;;;8.43;4.93;;;;;;;17.52;60.15;101545.19;10485144;28;20029;-56
2024/03/17 18:50:23;;;;;;;13.48;5.57;;;;;;;17.53;60.06;101553.00;10483550;28;20116;-55
2024/03/17 18:55:25;;;;;;;7.53;4.83;;;;;;;17.58;60.61;101546.03;10459020;28;20480;-56
2024/03/17 19:00:28;;;;;;;11.77;4.63;;;;;;;17.44;60.38;101532.34;10463300;28;20326;-55
2024/03/17 19:05:32;;;;;;;8.55;4.18;;;;;;;17.37;59.77;101540.63;10449668;28;20462;-55
2024/03/17 19:10:32;;;;;;;7.70;4.10;;;;;;;17.35;60.17;101536.63;10459968;28;20039;-56
2024/03/17 19:15:33;;;;;;;5.57;4.17;;;;;;;17.32;59.05;101537.16;10490271;28;20640;-56
2024/03/17 19:20:33;;;;;;;8.73;4.43;;;;;;;17.27;60.19;101535.25;10491096;28;20274;-56
2024/03/17 19:25:34;;;;;;;7.10;4.40;;;;;;;17.25;59.86;101530.19;10490735;28;20033;-56
2024/03/17 19:30:34;;;;;;;6.47;4.23;;;;;;;17.22;60.22;101521.88;10492789;28;20111;-54
2024/03/17 19:35:34;;;;;;;7.00;3.77;;;;;;;17.25;59.98;101514.09;10498893;28;20849;-56
2024/03/17 19:40:35;;;;;;;7.47;3.33;;;;;;;17.24;59.08;101519.72;10487510;28;20373;-56
2024/03/17 19:45:35;;;;;;;10.33;4.87;;;;;;;17.28;59.61;101520.00;10488293;28;20283;-55
2024/03/17 19:50:35;;;;;;;6.27;3.90;;;;;;;17.27;59.73;101510.34;10487847;28;20275;-55
2024/03/17 19:55:36;;;;;;;6.32;3.60;;;;;;;17.27;58.94;101513.81;10485719;28;20286;-55
2024/03/17 20:00:36;;;;;;;5.93;3.80;;;;;;;17.34;58.98;101509.00;10484744;28;20384;-55
2024/03/17 20:05:38;;;;;;;6.63;4.23;;;;;;;17.33;58.49;101504.72;10488812;28;20052;-55
2024/03/17 20:10:39;;;;;;;5.63;3.40;;;;;;;17.31;58.78;101500.72;10485899;28;20424;-56
2024/03/17 20:15:39;;;;;;;6.13;3.22;;;;;;;17.30;58.60;101494.53;10482939;28;20428;-56
2024/03/17 20:20:39;;;;;;;7.17;3.50;;;;;;;17.34;57.64;101495.63;10487463;28;20498;-54
2024/03/17 20:25:39;;;;;;;8.38;3.47;;;;;;;17.33;58.15;101483.28;10493902;28;20271;-56
2024/03/17 20:30:40;;;;;;;8.90;3.43;;;;;;;17.31;57.56;101485.44;10494481;28;20032;-56
2024/03/17 20:35:40;;;;;;;6.30;2.88;;;;;;;17.36;58.53;101492.66;10491840;28;20294;-55
2024/03/17 20:40:41;;;;;;;6.97;3.40;;;;;;;17.37;57.68;101478.97;10491138;28;20032;-56
2024/03/17 20:45:41;;;;;;;5.22;2.55;;;;;;;17.34;57.50;101468.00;10496188;28;20283;-56
2024/03/17 20:50:41;;;;;;;6.07;3.10;;;;;;;17.34;58.59;101476.03;10496380;28;20040;-56
2024/03/17 20:55:42;;;;;;;4.87;3.00;;;;;;;17.31;58.18;101468.53;10494753;28;20063;-56
2024/03/17 21:00:47;;;;;;;4.43;2.72;;;;;;;17.32;57.70;101465.59;10496416;28;20424;-55
2024/03/17 21:05:48;;;;;;;4.55;2.75;;;;;;;17.33;57.66;101467.19;10495697;28;20141;-54
2024/03/17 21:10:56;;;;;;;4.05;3.15;;;;;;;17.32;58.10;101462.91;10495453;28;20031;-54
2024/03/17 21:15:57;;;;;;;4.30;2.63;;;;;;;17.32;57.75;101467.47;10493409;28;20445;-55
2024/03/17 21:21:02;;;;;;;6.57;2.75;;;;;;;17.30;56.99;101467.75;10495340;28;20154;-56
2024/03/17 21:26:03;;;;;;;6.03;2.80;;;;;;;17.34;57.76;101465.31;10494579;28;20021;-56
2024/03/17 21:31:04;;;;;;;4.05;2.40;;;;;;;17.36;57.74;101453.25;10500814;28;20028;-56
2024/03/17 21:36:05;;;;;;;3.85;2.50;;;;;;;17.34;57.38;101450.03;10500465;28;20037;-55
2024/03/17 21:41:13;;;;;;;3.95;2.17;;;;;;;17.36;57.52;101455.13;10494460;28;20033;-54
2024/03/17 21:46:14;;;;;;;4.88;2.70;;;;;;;17.32;57.05;101443.34;10494029;28;20028;-55
2024/03/17 21:51:14;;;;;;;3.70;2.30;;;;;;;17.31;57.72;101450.59;10493979;28;20032;-55
2024/03/17 21:56:14;;;;;;;4.40;2.33;;;;;;;17.34;57.10;101447.38;10491250;28;20340;-55
2024/03/17 22:01:15;;;;;;;5.50;2.70;;;;;;;17.35;57.02;101445.47;10478733;28;20738;-54
2024/03/17 22:06:15;;;;;;;3.40;2.35;;;;;;;17.35;56.49;101443.59;10451607;28;20303;-56
2024/03/17 22:11:15;;;;;;;3.43;2.30;;;;;;;17.33;56.65;101437.72;10468197;28;20106;-55
2024/03/17 22:16:16;;;;;;;3.70;2.47;;;;;;;17.32;56.68;101428.06;10492522;28;20274;-54
2024/03/17 22:21:16;;;;;;;3.25;1.83;;;;;;;17.31;56.45;101426.47;10491361;28;20865;-56
2024/03/17 22:26:17;;;;;;;3.85;2.10;;;;;;;17.35;56.84;101422.16;10492570;28;20113;-56
2024/03/17 22:31:17;;;;;;;3.00;2.30;;;;;;;17.36;57.37;101417.59;10500304;28;20379;-56
2024/03/17 22:36:17;;;;;;;3.63;1.97;;;;;;;17.37;57.21;101422.69;10495461;28;20302;-56
2024/03/17 22:41:19;;;;;;;4.33;2.23;;;;;;;17.35;57.56;101414.13;10491982;28;20323;-56
2024/03/17 22:46:21;;;;;;;3.05;2.05;;;;;;;17.33;56.85;101399.38;10491525;28;20275;-55
2024/03/17 22:51:21;;;;;;;3.58;2.63;;;;;;;17.37;56.50;101397.75;10491735;28;20101;-56
2024/03/17 22:56:27;;;;;;;3.10;1.70;;;;;;;17.37;57.07;101392.41;10491364;28;20194;-56
2024/03/17 23:01:32;;;;;;;3.00;2.30;;;;;;;17.38;56.96;101389.44;10491834;28;20274;-56
2024/03/17 23:06:33;;;;;;;3.00;2.10;;;;;;;17.38;57.34;101385.97;10491279;28;20073;-56